Penguin Arrow — C6PA6 — position and weather

sailwx.info

Track history (hours):
 
Tides and Currents Weather Stations Pressure Air Temp Water Temp Dewpoint Dewpoint Depression Visibility Wind Speed Wind Dir Waves Ship Positions

Penguin Arrow

Last reported at 2016-Jun-26 22:23 UTC. Time now 2016-Jul-01 19:05 UTC.
Position S 38°29' E 142°00'.

Length 200 m; draft 7.4 m.

Type: Cargo ship. MMSI: 309927000.

Date/timePositionNaut miles runAvg speedWind from/ knotsBaromVisibWave heightAir tempDewpointWater temp
2016-Jun-26 22:23S 38°29' E 142°00'1011.8
2016-Jun-26 21:32S 38°34' E 142°11'  
2016-Jun-21 00:08S 39°07' E 146°04'610.0
2016-Jun-20 23:33S 39°10' E 146°11'10 9.6
2016-Jun-20 22:33S 39°11' E 146°23'1010.0
2016-Jun-20 21:33S 39°07' E 146°35'9 9.0
2016-Jun-20 20:33S 39°05' E 146°46'9 8.8
2016-Jun-20 19:33S 39°02' E 146°57'127 6.2
2016-Jun-19 23:14S 38°11' E 149°25'811.0
2016-Jun-19 22:33S 38°06' E 149°33'1111.5
2016-Jun-19 21:33S 37°57' E 149°42'1212.1
2016-Jun-19 20:33S 37°48' E 149°52'1212.5
2016-Jun-19 19:33S 37°39' E 150°03'1212.4
2016-Jun-19 18:33S 37°28' E 150°10'1212.2
2016-Jun-19 17:33S 37°16' E 150°15'1212.3
2016-Jun-19 16:33S 37°05' E 150°19'1211.7
2016-Jun-19 15:33S 36°53' E 150°23'1111.4
2016-Jun-19 14:34S 36°43' E 150°28'1111.4
2016-Jun-19 13:33S 36°32' E 150°32'  
Track history (hours):
 
Tides and Currents Weather Stations Pressure Air Temp Water Temp Dewpoint Dewpoint Depression Visibility Wind Speed Wind Dir Waves Ship Positions

Penguin Arrow

Last reported at 2016-Jun-26 22:23 UTC. Time now 2016-Jul-01 19:05 UTC.
Position S 38°29' E 142°00'.

Length 200 m; draft 7.4 m.

Type: Cargo ship. MMSI: 309927000.

Date/timePositionNaut miles runAvg speedWind from/ knotsBaromVisibWave heightAir tempDewpointWater temp
2016-Jun-26 22:23S 38°29' E 142°00'1011.8
2016-Jun-26 21:32S 38°34' E 142°11'  
2016-Jun-21 00:08S 39°07' E 146°04'610.0
2016-Jun-20 23:33S 39°10' E 146°11'10 9.6
2016-Jun-20 22:33S 39°11' E 146°23'1010.0
2016-Jun-20 21:33S 39°07' E 146°35'9 9.0
2016-Jun-20 20:33S 39°05' E 146°46'9 8.8
2016-Jun-20 19:33S 39°02' E 146°57'127 6.2
2016-Jun-19 23:14S 38°11' E 149°25'811.0
2016-Jun-19 22:33S 38°06' E 149°33'1111.5
2016-Jun-19 21:33S 37°57' E 149°42'1212.1
2016-Jun-19 20:33S 37°48' E 149°52'1212.5
2016-Jun-19 19:33S 37°39' E 150°03'1212.4
2016-Jun-19 18:33S 37°28' E 150°10'1212.2
2016-Jun-19 17:33S 37°16' E 150°15'1212.3
2016-Jun-19 16:33S 37°05' E 150°19'1211.7
2016-Jun-19 15:33S 36°53' E 150°23'1111.4
2016-Jun-19 14:34S 36°43' E 150°28'1111.4
2016-Jun-19 13:33S 36°32' E 150°32'  

Dump ship's entire track history